Time;durP1;ratioP1;P1;durP2;ratioP2;P2;SDS_P1;SDS_P2;PMS_P1;PMS_P2;Temp;Humidity;BMP_temperature;BMP_pressure;BME280_temperature;BME280_humidity;BME280_pressure;Samples;Min_cycle;Max_cycle;Signal;HPM_P1;HPM_P2
2022/11/14 00:00:26;;;;;;;55.15;25.23;;;7.00;99.90;;;;;;5012477;28;20029;-64
2022/11/14 00:02:52;;;;;;;52.22;24.48;;;7.10;99.90;;;;;;5022816;28;20026;-64
2022/11/14 00:05:17;;;;;;;57.08;25.55;;;7.10;99.90;;;;;;5031651;28;20139;-65
2022/11/14 00:07:44;;;;;;;55.70;24.00;;;7.10;99.90;;;;;;5013556;28;20490;-64
2022/11/14 00:10:10;;;;;;;53.17;24.77;;;7.10;99.90;;;;;;5036852;28;20041;-64
2022/11/14 00:12:35;;;;;;;54.45;24.08;;;7.10;99.90;;;;;;5039696;28;20064;-65
2022/11/14 00:15:01;;;;;;;54.58;23.73;;;7.10;99.90;;;;;;5033677;28;20041;-64
2022/11/14 00:17:27;;;;;;;55.22;25.83;;;7.10;99.90;;;;;;5028068;28;20547;-64
2022/11/14 00:19:52;;;;;;;57.45;26.33;;;7.10;99.90;;;;;;5015787;28;20029;-64
2022/11/14 00:22:18;;;;;;;57.08;25.73;;;7.10;99.90;;;;;;5045128;28;20041;-64
2022/11/14 00:24:43;;;;;;;53.95;25.95;;;7.10;99.90;;;;;;5027738;28;20065;-65
2022/11/14 00:27:09;;;;;;;53.50;25.58;;;7.10;99.90;;;;;;5033882;28;20479;-65
2022/11/14 00:29:34;;;;;;;57.83;25.88;;;7.10;99.90;;;;;;5028173;28;20088;-65
2022/11/14 00:32:00;;;;;;;56.38;25.48;;;7.10;99.90;;;;;;5033351;28;20033;-64
2022/11/14 00:34:26;;;;;;;53.83;26.52;;;7.10;99.90;;;;;;5037184;28;20487;-65
2022/11/14 00:36:51;;;;;;;55.00;27.63;;;7.10;99.90;;;;;;5029513;28;20478;-65
2022/11/14 00:39:17;;;;;;;62.38;28.30;;;7.10;99.90;;;;;;5036359;28;20069;-65
2022/11/14 00:41:42;;;;;;;57.78;26.90;;;7.10;99.90;;;;;;5052347;28;20036;-64
2022/11/14 00:44:10;;;;;;;64.63;29.88;;;7.20;99.90;;;;;;5037451;28;20110;-64
2022/11/14 00:46:36;;;;;;;63.95;29.63;;;7.20;99.90;;;;;;5031583;28;20050;-65
2022/11/14 00:49:01;;;;;;;58.40;28.80;;;7.20;99.90;;;;;;5036455;28;20037;-64
2022/11/14 00:51:27;;;;;;;62.08;29.42;;;7.20;99.90;;;;;;5029859;28;20427;-65
2022/11/14 00:53:52;;;;;;;60.80;28.73;;;7.20;99.90;;;;;;5032657;28;20079;-65
2022/11/14 00:56:18;;;;;;;58.78;28.77;;;7.10;99.90;;;;;;5012513;28;20055;-64
2022/11/14 00:58:44;;;;;;;62.67;31.63;;;7.10;99.90;;;;;;5030142;28;20135;-65
2022/11/14 01:01:09;;;;;;;63.08;29.45;;;7.10;99.90;;;;;;5039317;28;20407;-65
2022/11/14 01:03:35;;;;;;;58.90;28.77;;;7.10;99.90;;;;;;5043413;28;20106;-64
2022/11/14 01:06:09;;;;;;;61.33;29.48;;;7.10;99.90;;;;;;5033077;28;20034;-65
2022/11/14 01:08:35;;;;;;;66.05;30.45;;;7.10;99.90;;;;;;5032014;28;20128;-64
2022/11/14 01:11:12;;;;;;;62.45;30.88;;;7.00;99.90;;;;;;5032041;28;20112;-65
2022/11/14 01:13:38;;;;;;;63.45;31.58;;;7.00;99.90;;;;;;5049417;28;20506;-65
2022/11/14 01:16:04;;;;;;;65.75;32.47;;;7.00;99.90;;;;;;5038143;28;20039;-64
2022/11/14 01:18:30;;;;;;;67.97;30.65;;;7.00;99.90;;;;;;5031504;28;20108;-65
2022/11/14 01:20:56;;;;;;;67.20;30.33;;;7.00;99.90;;;;;;5029719;28;20506;-65
2022/11/14 01:23:22;;;;;;;68.35;31.50;;;6.90;99.90;;;;;;5032153;28;20041;-65
2022/11/14 01:25:47;;;;;;;64.03;31.20;;;6.90;99.90;;;;;;5030676;28;20053;-64
2022/11/14 01:28:19;;;;;;;63.28;31.10;;;6.90;99.90;;;;;;5041092;28;20096;-64
2022/11/14 01:30:45;;;;;;;66.60;29.60;;;6.90;99.90;;;;;;5039538;28;20048;-64
2022/11/14 01:33:11;;;;;;;67.95;32.70;;;6.80;99.90;;;;;;5024279;28;20041;-64
2022/11/14 01:35:37;;;;;;;66.40;31.73;;;6.80;99.90;;;;;;5032831;28;20120;-64
2022/11/14 01:38:04;;;;;;;71.18;32.25;;;6.80;99.90;;;;;;5024288;28;20452;-65
2022/11/14 01:40:30;;;;;;;70.20;33.38;;;6.70;99.90;;;;;;5024651;28;20057;-65
2022/11/14 01:43:15;;;;;;;72.07;33.58;;;6.70;99.90;;;;;;5043943;28;20537;-65
2022/11/14 01:45:54;;;;;;;73.20;32.38;;;6.70;99.90;;;;;;5048637;28;20049;-64
2022/11/14 01:48:27;;;;;;;66.65;31.35;;;6.70;99.90;;;;;;5031676;28;20041;-64
2022/11/14 01:50:57;;;;;;;70.47;33.22;;;6.70;99.90;;;;;;5026440;28;20443;-64
2022/11/14 01:53:23;;;;;;;71.45;32.63;;;6.70;99.90;;;;;;5032836;28;20418;-65
2022/11/14 01:55:51;;;;;;;73.85;32.03;;;6.70;99.90;;;;;;5026666;28;20041;-64
2022/11/14 01:58:17;;;;;;;72.22;32.70;;;6.70;99.90;;;;;;5040571;28;20034;-64
2022/11/14 02:00:43;;;;;;;74.28;33.38;;;6.70;99.90;;;;;;5014411;28;20513;-64
2022/11/14 02:03:14;;;;;;;75.80;34.53;;;6.70;99.90;;;;;;5028956;28;20039;-65
2022/11/14 02:05:41;;;;;;;70.47;34.33;;;6.70;99.90;;;;;;5030373;28;20052;-64
2022/11/14 02:08:11;;;;;;;74.22;34.05;;;6.70;99.90;;;;;;5028041;28;20064;-64
2022/11/14 02:10:36;;;;;;;72.00;33.60;;;6.70;99.90;;;;;;5025878;28;20037;-65
2022/11/14 02:13:02;;;;;;;69.70;32.70;;;6.70;99.90;;;;;;5034012;28;20543;-65
2022/11/14 02:15:28;;;;;;;76.68;34.97;;;6.70;99.90;;;;;;5016341;28;20552;-64
2022/11/14 02:17:54;;;;;;;76.97;34.83;;;6.70;99.90;;;;;;5034832;28;20386;-65
2022/11/14 02:20:30;;;;;;;77.05;34.03;;;6.60;99.90;;;;;;5035845;28;20037;-65
2022/11/14 02:22:56;;;;;;;73.00;31.90;;;6.70;99.90;;;;;;5027546;28;20072;-64
2022/11/14 02:25:21;;;;;;;80.13;35.92;;;6.70;99.90;;;;;;5033475;28;20298;-65
2022/11/14 02:27:47;;;;;;;75.35;34.20;;;6.70;99.90;;;;;;5033643;28;20725;-65
2022/11/14 02:30:19;;;;;;;79.13;35.42;;;6.60;99.90;;;;;;5038625;28;20124;-64
2022/11/14 02:32:45;;;;;;;76.55;34.22;;;6.70;99.90;;;;;;5026811;28;20533;-64
2022/11/14 02:35:11;;;;;;;79.28;34.35;;;6.60;99.90;;;;;;5029094;28;20045;-65
2022/11/14 02:37:37;;;;;;;72.47;33.95;;;6.60;99.90;;;;;;5029849;28;20038;-64
2022/11/14 02:40:03;;;;;;;76.93;34.25;;;6.60;99.90;;;;;;5030416;28;20033;-64
2022/11/14 02:42:29;;;;;;;79.20;35.70;;;6.70;99.90;;;;;;5024523;28;20056;-64
2022/11/14 02:44:55;;;;;;;77.53;34.08;;;6.60;99.90;;;;;;5008736;28;20045;-65
2022/11/14 02:47:20;;;;;;;74.55;34.38;;;6.60;99.90;;;;;;5031830;28;20041;-64
2022/11/14 02:49:46;;;;;;;82.60;35.35;;;6.70;99.90;;;;;;5030937;28;20045;-64
2022/11/14 02:52:11;;;;;;;77.57;34.70;;;6.60;99.90;;;;;;5030994;28;20518;-64
2022/11/14 02:54:37;;;;;;;79.40;35.25;;;6.60;99.90;;;;;;5016092;28;20513;-64
2022/11/14 02:57:02;;;;;;;79.30;35.97;;;6.70;99.90;;;;;;5028378;28;20045;-64
2022/11/14 02:59:28;;;;;;;80.70;35.50;;;6.70;99.90;;;;;;5030899;28;20053;-64
2022/11/14 03:01:54;;;;;;;85.82;42.72;;;6.70;99.90;;;;;;5029305;28;20514;-64
2022/11/14 03:04:19;;;;;;;89.70;40.90;;;6.70;99.90;;;;;;5026941;28;20030;-64
2022/11/14 03:06:45;;;;;;;99.47;45.22;;;6.70;99.90;;;;;;5026697;28;20041;-65
2022/11/14 03:09:10;;;;;;;100.25;49.55;;;6.70;99.90;;;;;;5041985;28;20394;-64
2022/11/14 03:11:37;;;;;;;100.57;49.53;;;6.70;99.90;;;;;;5032140;28;20044;-64
2022/11/14 03:14:03;;;;;;;99.03;50.03;;;6.70;99.90;;;;;;5051060;28;20025;-65
2022/11/14 03:16:28;;;;;;;99.90;49.30;;;6.70;99.90;;;;;;5031517;28;20414;-65
2022/11/14 03:18:54;;;;;;;97.65;48.70;;;6.70;99.90;;;;;;5030323;28;20046;-64
2022/11/14 03:21:21;;;;;;;102.03;49.00;;;6.70;99.90;;;;;;5032352;28;20117;-64
2022/11/14 03:23:47;;;;;;;102.80;49.60;;;6.70;99.90;;;;;;5031598;28;20041;-65
2022/11/14 03:26:14;;;;;;;98.55;46.50;;;6.70;99.90;;;;;;5042919;22;20038;-67
2022/11/14 03:28:40;;;;;;;103.75;50.30;;;6.70;99.90;;;;;;5029683;28;20487;-67
2022/11/14 03:31:07;;;;;;;101.63;48.58;;;6.70;99.90;;;;;;5016464;28;20163;-67
2022/11/14 03:33:33;;;;;;;96.13;44.78;;;6.70;99.90;;;;;;5032333;28;20116;-67
2022/11/14 03:35:59;;;;;;;84.10;41.90;;;6.70;99.90;;;;;;5018893;28;20066;-67
2022/11/14 03:38:25;;;;;;;90.53;43.08;;;6.70;99.90;;;;;;5023353;28;20072;-67
2022/11/14 03:40:51;;;;;;;83.75;39.45;;;6.70;99.90;;;;;;5025186;28;20038;-66
2022/11/14 03:43:18;;;;;;;85.50;39.78;;;6.70;99.90;;;;;;5023271;28;20038;-67
2022/11/14 03:45:44;;;;;;;78.38;36.15;;;6.70;99.90;;;;;;5032461;28;20049;-67
2022/11/14 03:48:10;;;;;;;84.43;38.88;;;6.70;99.90;;;;;;5021189;28;20461;-66
2022/11/14 03:50:35;;;;;;;80.40;37.58;;;6.70;99.90;;;;;;5023518;28;20029;-67
2022/11/14 03:53:01;;;;;;;82.82;37.40;;;6.70;99.90;;;;;;5034303;28;20490;-67
2022/11/14 03:55:27;;;;;;;77.90;35.03;;;6.70;99.90;;;;;;5022810;28;20072;-67
2022/11/14 03:57:52;;;;;;;81.85;35.75;;;6.70;99.90;;;;;;5026064;28;20628;-67
2022/11/14 04:00:18;;;;;;;73.07;34.20;;;6.60;99.90;;;;;;5019504;28;20053;-67
2022/11/14 04:02:45;;;;;;;81.43;35.58;;;6.70;99.90;;;;;;5031033;28;20049;-67
2022/11/14 04:05:11;;;;;;;79.78;35.85;;;6.70;99.90;;;;;;5031646;28;20372;-67
2022/11/14 04:07:36;;;;;;;76.88;35.35;;;6.70;99.90;;;;;;5020358;28;20029;-67
2022/11/14 04:10:02;;;;;;;74.80;35.38;;;6.60;99.90;;;;;;5025153;28;20091;-67
2022/11/14 04:12:28;;;;;;;77.38;36.22;;;6.60;99.90;;;;;;5028877;28;20183;-67
2022/11/14 04:14:53;;;;;;;74.38;34.78;;;6.60;99.90;;;;;;5029747;28;20033;-67
2022/11/14 04:17:19;;;;;;;76.93;35.30;;;6.60;99.90;;;;;;5023532;28;20160;-67
2022/11/14 04:19:44;;;;;;;76.45;34.83;;;6.60;99.90;;;;;;5030741;28;20115;-66
2022/11/14 04:22:11;;;;;;;76.95;36.08;;;6.60;99.90;;;;;;5032846;28;20081;-67
2022/11/14 04:24:36;;;;;;;73.07;35.00;;;6.60;99.90;;;;;;5034036;28;20084;-67
2022/11/14 04:27:02;;;;;;;71.53;32.97;;;6.70;99.90;;;;;;5028866;28;20253;-67
2022/11/14 04:29:27;;;;;;;74.63;34.92;;;6.60;99.90;;;;;;5029520;28;20060;-67
2022/11/14 04:31:53;;;;;;;76.63;35.10;;;6.60;99.90;;;;;;5032538;28;20041;-67
2022/11/14 04:34:19;;;;;;;74.90;33.47;;;6.60;99.90;;;;;;5027067;28;20117;-67
2022/11/14 04:36:44;;;;;;;68.07;33.03;;;6.60;99.90;;;;;;5025642;28;20064;-67
2022/11/14 04:39:10;;;;;;;68.68;32.70;;;6.60;99.90;;;;;;5034367;28;20052;-67
2022/11/14 04:41:35;;;;;;;71.50;33.53;;;6.60;99.90;;;;;;5018808;28;20049;-67
2022/11/14 04:44:01;;;;;;;72.22;34.30;;;6.70;99.90;;;;;;5028188;28;20518;-67
2022/11/14 04:46:26;;;;;;;73.35;33.35;;;6.60;99.90;;;;;;5022131;28;20481;-67
2022/11/14 04:48:52;;;;;;;73.95;35.40;;;6.60;99.90;;;;;;5025483;28;20034;-67
2022/11/14 04:51:18;;;;;;;78.28;33.67;;;6.60;99.90;;;;;;5014275;28;20073;-67
2022/11/14 04:53:43;;;;;;;76.40;34.65;;;6.70;99.90;;;;;;5015451;28;20116;-67
2022/11/14 04:56:09;;;;;;;71.15;32.63;;;6.70;99.90;;;;;;5032886;28;20038;-67
2022/11/14 04:58:35;;;;;;;74.13;34.90;;;6.70;99.90;;;;;;5031524;28;20426;-67
2022/11/14 05:01:10;;;;;;;74.03;34.13;;;6.60;99.90;;;;;;5023738;28;20041;-67
2022/11/14 05:03:36;;;;;;;74.25;35.08;;;6.60;99.90;;;;;;5024890;28;20049;-67
2022/11/14 05:06:02;;;;;;;78.82;35.50;;;6.60;99.90;;;;;;5029760;28;20106;-67
2022/11/14 05:08:27;;;;;;;72.70;34.40;;;6.70;99.90;;;;;;5025122;28;20123;-67
2022/11/14 05:10:53;;;;;;;76.28;35.17;;;6.60;99.90;;;;;;5022509;28;20065;-67
2022/11/14 05:13:19;;;;;;;79.80;36.20;;;6.60;99.90;;;;;;5029016;28;20044;-67
2022/11/14 05:15:44;;;;;;;74.88;35.20;;;6.60;99.90;;;;;;5030324;28;20038;-67
2022/11/14 05:18:10;;;;;;;76.53;35.90;;;6.60;99.90;;;;;;5025440;28;20473;-67
2022/11/14 05:20:35;;;;;;;81.13;36.17;;;6.60;99.90;;;;;;5031142;28;20458;-67
2022/11/14 05:23:01;;;;;;;76.88;34.45;;;6.60;99.90;;;;;;5027522;28;20038;-68
2022/11/14 05:25:27;;;;;;;79.20;35.65;;;6.60;99.90;;;;;;5028864;28;20091;-67
2022/11/14 05:27:52;;;;;;;78.82;37.00;;;6.60;99.90;;;;;;5031238;28;20034;-67
2022/11/14 05:30:18;;;;;;;79.38;35.80;;;6.60;99.90;;;;;;5017100;28;20038;-67
2022/11/14 05:32:43;;;;;;;77.20;33.25;;;6.60;99.90;;;;;;5028476;28;20084;-67
2022/11/14 05:35:09;;;;;;;80.72;35.45;;;6.60;99.90;;;;;;5020044;28;20120;-67
2022/11/14 05:37:35;;;;;;;79.70;35.25;;;6.60;99.90;;;;;;5028850;28;20044;-67
2022/11/14 05:40:02;;;;;;;77.53;35.53;;;6.60;99.90;;;;;;5020874;28;20038;-67
2022/11/14 05:42:27;;;;;;;78.85;37.05;;;6.60;99.90;;;;;;5013272;28;20476;-67
2022/11/14 05:44:53;;;;;;;86.40;37.03;;;6.60;99.90;;;;;;5024655;28;20053;-67
2022/11/14 05:47:19;;;;;;;80.45;36.70;;;6.60;99.90;;;;;;5017286;28;20662;-67
2022/11/14 05:49:44;;;;;;;81.15;36.65;;;6.50;99.90;;;;;;5028163;28;20064;-67
2022/11/14 05:52:10;;;;;;;73.97;32.90;;;6.50;99.90;;;;;;5027024;28;20120;-67
2022/11/14 05:54:36;;;;;;;77.65;34.78;;;6.50;99.90;;;;;;5031151;28;20077;-67
2022/11/14 05:57:03;;;;;;;81.50;34.60;;;6.50;99.90;;;;;;5025693;28;20687;-66
2022/11/14 05:59:28;;;;;;;79.03;35.47;;;6.50;99.90;;;;;;5028999;28;20120;-66
2022/11/14 06:01:54;;;;;;;85.40;35.50;;;6.50;99.90;;;;;;5030546;28;20141;-66
2022/11/14 06:04:20;;;;;;;80.05;35.42;;;6.50;99.90;;;;;;5023502;28;20512;-67
2022/11/14 06:06:45;;;;;;;79.03;35.65;;;6.50;99.90;;;;;;5023924;28;20068;-66
2022/11/14 06:09:11;;;;;;;82.88;35.92;;;6.50;99.90;;;;;;5025193;28;20052;-67
2022/11/14 06:11:36;;;;;;;88.88;37.40;;;6.40;99.90;;;;;;5027459;28;20147;-66
2022/11/14 06:14:02;;;;;;;88.57;39.35;;;6.50;99.90;;;;;;5023037;28;20032;-66
2022/11/14 06:16:28;;;;;;;89.47;38.53;;;6.50;99.90;;;;;;5029295;28;20123;-67
2022/11/14 06:18:54;;;;;;;99.13;41.40;;;6.50;99.90;;;;;;5022789;28;20540;-67
2022/11/14 06:21:22;;;;;;;89.35;38.00;;;6.50;99.90;;;;;;5030198;28;20120;-66
2022/11/14 06:23:48;;;;;;;86.68;36.15;;;6.50;99.90;;;;;;5023050;28;20142;-66
2022/11/14 06:26:30;;;;;;;81.18;35.08;;;6.50;99.90;;;;;;5023862;28;20503;-66
2022/11/14 06:28:57;;;;;;;80.93;33.83;;;6.50;99.90;;;;;;5024938;28;20034;-67
2022/11/14 06:31:24;;;;;;;74.18;33.80;;;6.50;99.90;;;;;;5029744;28;20033;-67
2022/11/14 06:33:50;;;;;;;83.22;35.45;;;6.50;99.90;;;;;;5025120;28;20038;-66
2022/11/14 06:36:16;;;;;;;82.15;34.70;;;6.40;99.90;;;;;;5025805;28;20037;-66
2022/11/14 06:38:42;;;;;;;77.95;35.70;;;6.50;99.90;;;;;;5027077;28;20047;-67
2022/11/14 06:41:17;;;;;;;80.80;35.13;;;6.40;99.90;;;;;;5024956;28;20042;-66
2022/11/14 06:43:45;;;;;;;78.43;34.20;;;6.40;99.90;;;;;;5014676;28;20046;-66
2022/11/14 06:46:17;;;;;;;76.80;33.83;;;6.40;99.90;;;;;;5024106;28;20053;-66
2022/11/14 06:48:45;;;;;;;79.50;35.25;;;6.40;99.90;;;;;;5029346;28;20048;-67
2022/11/14 06:51:12;;;;;;;81.13;34.00;;;6.30;99.90;;;;;;5023151;28;20415;-67
2022/11/14 06:53:39;;;;;;;72.20;33.00;;;6.30;99.90;;;;;;5028045;28;20481;-67
2022/11/14 06:56:13;;;;;;;75.65;32.92;;;6.30;99.90;;;;;;5026831;28;20549;-66
2022/11/14 06:58:43;;;;;;;73.55;32.88;;;6.30;99.90;;;;;;5024986;28;20124;-66
2022/11/14 07:01:11;;;;;;;72.22;32.72;;;6.20;99.90;;;;;;5019840;28;20495;-67
2022/11/14 07:03:37;;;;;;;76.10;33.65;;;6.20;99.90;;;;;;5021578;28;20042;-66
2022/11/14 07:06:04;;;;;;;77.95;33.75;;;6.20;99.90;;;;;;5029317;28;20064;-67
2022/11/14 07:08:30;;;;;;;74.18;32.67;;;6.20;99.90;;;;;;5030190;28;20588;-66
2022/11/14 07:11:24;;;;;;;76.60;33.47;;;6.20;99.90;;;;;;5019436;28;20040;-66
2022/11/14 07:13:54;;;;;;;75.22;33.33;;;6.20;99.90;;;;;;5024203;28;20440;-66
2022/11/14 07:16:23;;;;;;;78.05;32.85;;;6.10;99.90;;;;;;5020228;28;20048;-66
2022/11/14 07:18:48;;;;;;;78.00;34.75;;;6.10;99.90;;;;;;5022543;28;20056;-66
2022/11/14 07:21:14;;;;;;;73.43;32.85;;;6.00;99.90;;;;;;5021558;28;20041;-66
2022/11/14 07:23:41;;;;;;;79.95;33.83;;;6.00;99.90;;;;;;5031743;28;20049;-66
2022/11/14 07:26:09;;;;;;;80.53;34.53;;;6.00;99.90;;;;;;5023038;28;20037;-66
2022/11/14 07:28:36;;;;;;;80.75;34.15;;;6.00;99.90;;;;;;5031664;28;20036;-67
2022/11/14 07:31:06;;;;;;;80.40;33.95;;;6.00;99.90;;;;;;5028556;28;20034;-66
2022/11/14 07:33:33;;;;;;;86.75;36.28;;;6.00;99.90;;;;;;5015958;28;20390;-66
2022/11/14 07:35:59;;;;;;;77.78;34.83;;;6.00;99.90;;;;;;5032473;28;20071;-66
2022/11/14 07:38:24;;;;;;;86.10;36.72;;;6.00;99.90;;;;;;5033815;28;20045;-67
2022/11/14 07:40:54;;;;;;;92.32;37.78;;;6.00;99.90;;;;;;5029355;28;20392;-66
2022/11/14 07:43:20;;;;;;;81.65;35.80;;;6.10;99.90;;;;;;5028093;28;20490;-66
2022/11/14 07:45:45;;;;;;;80.60;35.00;;;6.10;99.90;;;;;;5026074;28;20052;-67
2022/11/14 07:48:11;;;;;;;80.30;35.58;;;6.10;99.90;;;;;;5020947;28;20037;-66
2022/11/14 07:50:36;;;;;;;85.07;35.33;;;6.10;99.90;;;;;;5026243;28;20029;-66
2022/11/14 07:53:02;;;;;;;81.30;34.90;;;6.10;99.90;;;;;;5029714;28;20030;-66
2022/11/14 07:55:27;;;;;;;86.50;36.03;;;6.10;99.90;;;;;;5021681;28;20042;-66
2022/11/14 07:57:53;;;;;;;82.20;35.00;;;6.10;99.90;;;;;;5024850;28;20037;-67
2022/11/14 08:00:19;;;;;;;75.50;35.35;;;6.10;99.90;;;;;;5044808;28;20042;-67
2022/11/14 08:02:46;;;;;;;84.35;35.63;;;6.10;99.90;;;;;;5025534;28;20029;-67
2022/11/14 08:05:12;;;;;;;78.65;34.40;;;6.20;99.90;;;;;;5027835;28;20041;-67
2022/11/14 08:07:37;;;;;;;82.55;35.70;;;6.20;99.90;;;;;;5024645;28;20490;-66
2022/11/14 08:10:03;;;;;;;85.72;36.33;;;6.20;99.90;;;;;;5022535;28;20484;-67
2022/11/14 08:12:29;;;;;;;82.55;34.95;;;6.30;99.90;;;;;;5031946;28;20044;-67
2022/11/14 08:14:55;;;;;;;79.07;34.72;;;6.30;99.90;;;;;;5027318;28;20025;-67
2022/11/14 08:17:21;;;;;;;81.88;35.85;;;6.30;99.90;;;;;;5023975;28;20523;-67
2022/11/14 08:19:47;;;;;;;86.78;36.22;;;6.40;99.90;;;;;;5021661;28;20181;-67
2022/11/14 08:22:12;;;;;;;82.60;35.42;;;6.40;99.90;;;;;;5026832;28;20626;-67
2022/11/14 08:24:38;;;;;;;76.25;34.35;;;6.50;99.90;;;;;;5031920;28;20493;-67
2022/11/14 08:27:03;;;;;;;76.68;34.85;;;6.50;99.90;;;;;;5025446;28;20040;-67
2022/11/14 08:29:29;;;;;;;82.00;34.33;;;6.50;99.90;;;;;;5030663;28;20069;-67
2022/11/14 08:31:55;;;;;;;76.10;33.70;;;6.50;99.90;;;;;;5017343;28;20033;-67
2022/11/14 08:34:22;;;;;;;80.35;33.75;;;6.50;99.90;;;;;;5030089;28;20491;-67
2022/11/14 08:36:48;;;;;;;70.85;32.38;;;6.50;99.90;;;;;;5022498;28;20045;-67
2022/11/14 08:39:14;;;;;;;75.75;32.65;;;6.60;99.90;;;;;;5023911;28;20045;-67
2022/11/14 08:41:40;;;;;;;81.63;33.72;;;6.50;99.90;;;;;;5031322;28;20059;-67
2022/11/14 08:44:05;;;;;;;75.70;33.38;;;6.60;99.90;;;;;;5024866;28;20034;-67
2022/11/14 08:46:31;;;;;;;76.40;33.60;;;6.60;99.90;;;;;;5022839;28;20037;-67
2022/11/14 08:48:56;;;;;;;78.15;32.53;;;6.70;99.90;;;;;;5031750;28;20395;-67
2022/11/14 08:51:22;;;;;;;73.93;33.72;;;6.80;99.90;;;;;;5027037;28;20124;-67
2022/11/14 08:53:48;;;;;;;70.35;31.52;;;6.80;99.90;;;;;;5033246;28;20086;-67
2022/11/14 08:56:13;;;;;;;71.63;32.38;;;6.90;99.90;;;;;;5029920;28;20469;-67
2022/11/14 08:58:39;;;;;;;71.80;31.55;;;6.90;99.90;;;;;;5028025;28;20056;-67
2022/11/14 09:01:06;;;;;;;73.95;32.47;;;7.00;99.90;;;;;;5028684;28;20063;-68
2022/11/14 09:03:32;;;;;;;76.85;32.05;;;7.00;99.90;;;;;;5029304;28;20048;-67
2022/11/14 09:05:58;;;;;;;72.78;31.38;;;7.10;99.90;;;;;;5025019;28;20037;-67
2022/11/14 09:08:24;;;;;;;70.63;32.70;;;7.20;99.90;;;;;;5027823;28;20064;-67
2022/11/14 09:10:50;;;;;;;70.60;31.60;;;7.20;99.90;;;;;;5026123;28;20037;-67
2022/11/14 09:13:16;;;;;;;73.35;31.90;;;7.20;99.90;;;;;;5030676;28;20510;-67
2022/11/14 09:15:42;;;;;;;69.85;31.15;;;7.30;99.90;;;;;;5024342;28;20049;-68
2022/11/14 09:18:09;;;;;;;71.15;31.33;;;7.40;99.90;;;;;;5019486;28;20053;-67
2022/11/14 09:20:35;;;;;;;74.03;31.63;;;7.40;99.90;;;;;;5023811;28;20091;-67
2022/11/14 09:23:01;;;;;;;67.78;31.77;;;7.50;99.90;;;;;;5022418;28;20682;-67
2022/11/14 09:28:03;;;;;;;67.82;30.80;;;7.50;99.90;;;;;;5048474;28;20548;-63
2022/11/14 09:30:29;;;;;;;64.93;30.00;;;7.50;99.90;;;;;;5048965;28;20063;-64
2022/11/14 09:32:59;;;;;;;67.53;31.60;;;7.60;99.90;;;;;;5051906;28;20045;-63
2022/11/14 09:35:25;;;;;;;67.75;31.60;;;7.70;99.90;;;;;;5044496;28;20033;-63
2022/11/14 09:38:02;;;;;;;75.07;31.73;;;7.70;99.90;;;;;;5037591;28;20087;-64
2022/11/14 09:40:28;;;;;;;65.40;30.38;;;7.70;99.90;;;;;;5033057;28;20068;-63
2022/11/14 09:43:23;;;;;;;61.47;29.45;;;7.80;99.90;;;;;;5032475;28;20065;-63
2022/11/14 09:45:51;;;;;;;65.97;29.95;;;7.70;99.90;;;;;;5029486;28;20041;-63
2022/11/14 09:48:21;;;;;;;63.83;30.33;;;7.70;99.90;;;;;;5031460;28;20034;-63
2022/11/14 09:51:14;;;;;;;62.50;30.00;;;7.60;99.90;;;;;;5040886;28;20086;-63
2022/11/14 09:54:05;;;;;;;62.72;27.58;;;7.50;99.90;;;;;;5033174;28;20033;-63
2022/11/14 09:56:31;;;;;;;59.42;27.73;;;7.50;99.90;;;;;;5044141;28;20040;-63
2022/11/14 09:58:56;;;;;;;61.97;30.77;;;7.50;99.90;;;;;;5014649;28;20099;-63
2022/11/14 10:01:40;;;;;;;60.45;29.90;;;7.50;99.90;;;;;;5032322;28;20128;-63
2022/11/14 10:04:22;;;;;;;63.72;29.40;;;7.50;99.90;;;;;;5027788;28;20044;-63
2022/11/14 10:07:33;;;;;;;58.80;29.20;;;7.50;99.90;;;;;;5043448;28;20044;-63
2022/11/14 10:10:50;;;;;;;61.47;29.40;;;7.50;99.90;;;;;;5046622;28;20045;-63
2022/11/14 10:13:46;;;;;;;63.13;29.38;;;7.50;99.90;;;;;;4999327;28;20053;-64
2022/11/14 10:16:24;;;;;;;59.85;29.85;;;7.50;99.90;;;;;;5026888;28;20046;-64
2022/11/14 10:19:16;;;;;;;64.85;31.25;;;7.50;99.90;;;;;;5026627;28;20037;-63
2022/11/14 10:22:01;;;;;;;57.97;28.52;;;7.60;99.90;;;;;;5038563;28;20102;-63
2022/11/14 10:24:29;;;;;;;58.70;28.17;;;7.60;99.90;;;;;;5014778;28;20491;-63
2022/11/14 10:27:02;;;;;;;60.30;29.52;;;7.50;99.90;;;;;;5031243;28;20052;-63
2022/11/14 10:29:46;;;;;;;58.47;27.50;;;7.50;99.90;;;;;;5030311;28;20041;-64
2022/11/14 10:32:39;;;;;;;62.25;29.00;;;7.60;99.90;;;;;;5031152;28;20071;-63
2022/11/14 10:35:26;;;;;;;56.72;27.50;;;7.60;99.90;;;;;;5029945;28;20061;-63
2022/11/14 10:37:58;;;;;;;57.63;28.70;;;7.70;99.90;;;;;;5006358;28;20426;-63
2022/11/14 10:40:57;;;;;;;57.55;28.85;;;7.70;99.90;;;;;;5030556;28;20087;-64
2022/11/14 10:43:33;;;;;;;54.45;27.70;;;7.90;99.90;;;;;;5023763;28;20041;-63
2022/11/14 10:46:20;;;;;;;54.58;27.48;;;8.00;99.90;;;;;;5027961;28;20116;-63
2022/11/14 10:48:51;;;;;;;51.28;26.25;;;8.00;99.90;;;;;;5031788;28;20069;-63
2022/11/14 10:51:35;;;;;;;51.40;26.23;;;8.00;99.90;;;;;;5029539;28;20546;-64
2022/11/14 10:54:06;;;;;;;50.30;24.70;;;8.10;99.90;;;;;;5031093;28;20117;-64
2022/11/14 10:56:32;;;;;;;54.85;25.90;;;8.10;99.90;;;;;;5033397;28;20060;-63
2022/11/14 10:58:57;;;;;;;55.05;26.55;;;8.10;99.90;;;;;;5034986;28;20033;-63
2022/11/14 11:01:37;;;;;;;52.70;26.27;;;8.20;99.90;;;;;;5038273;28;20189;-63
2022/11/14 11:04:31;;;;;;;55.30;26.75;;;8.20;99.90;;;;;;5029476;28;20131;-63
2022/11/14 11:07:06;;;;;;;52.40;28.15;;;8.30;99.90;;;;;;5010848;28;20471;-63
2022/11/14 11:12:24;;;;;;;52.10;25.45;;;8.40;99.90;;;;;;5027116;28;20513;-63
2022/11/14 11:15:21;;;;;;;48.55;25.13;;;8.50;99.90;;;;;;5008182;28;20076;-63
2022/11/14 11:17:58;;;;;;;48.22;24.98;;;8.60;99.90;;;;;;5028368;28;20088;-64
2022/11/14 11:20:27;;;;;;;45.95;23.60;;;8.60;99.90;;;;;;5031246;28;20120;-63
2022/11/14 11:23:16;;;;;;;44.67;21.63;;;8.70;99.90;;;;;;5013835;28;20391;-63
2022/11/14 11:25:42;;;;;;;47.47;24.40;;;8.70;99.90;;;;;;5028986;28;20041;-63
2022/11/14 11:28:19;;;;;;;47.08;25.30;;;8.80;99.90;;;;;;5035894;28;20029;-63
2022/11/14 11:30:59;;;;;;;44.17;23.52;;;8.80;99.90;;;;;;5034056;28;20441;-63
2022/11/14 11:33:28;;;;;;;49.42;24.95;;;8.80;99.90;;;;;;5030991;28;20040;-63
2022/11/14 11:36:04;;;;;;;44.92;24.63;;;8.90;99.90;;;;;;5030245;28;20041;-63
2022/11/14 11:38:32;;;;;;;43.33;23.60;;;8.90;99.90;;;;;;5013525;28;20052;-63
2022/11/14 11:41:26;;;;;;;42.03;21.63;;;9.00;99.90;;;;;;5027766;28;20040;-63
2022/11/14 11:44:01;;;;;;;45.50;23.70;;;9.00;99.90;;;;;;5026348;28;20030;-63
2022/11/14 11:46:42;;;;;;;40.90;22.35;;;9.00;99.90;;;;;;5027589;28;20060;-64
2022/11/14 11:49:16;;;;;;;43.28;24.90;;;9.10;99.90;;;;;;5029196;28;20398;-63
2022/11/14 11:51:44;;;;;;;42.80;22.13;;;9.10;99.90;;;;;;5030546;28;20056;-63
2022/11/14 11:54:17;;;;;;;45.28;23.73;;;9.20;99.90;;;;;;5030283;28;20486;-63
2022/11/14 11:56:46;;;;;;;42.22;23.15;;;9.20;99.90;;;;;;5030626;28;20053;-63
2022/11/14 11:59:32;;;;;;;48.85;23.55;;;9.30;99.90;;;;;;5029546;28;20037;-63
2022/11/14 12:02:02;;;;;;;41.47;21.90;;;9.30;99.90;;;;;;5024544;28;20034;-63
2022/11/14 12:04:29;;;;;;;40.03;22.40;;;9.40;99.90;;;;;;5034766;28;20071;-63
2022/11/14 12:07:07;;;;;;;37.80;20.85;;;9.50;99.90;;;;;;5015911;28;20121;-63
2022/11/14 12:09:38;;;;;;;36.15;20.17;;;9.50;99.90;;;;;;5015190;28;20038;-63
2022/11/14 12:12:12;;;;;;;40.55;21.00;;;9.50;99.90;;;;;;5016412;28;20030;-63
2022/11/14 12:15:05;;;;;;;39.72;20.70;;;9.60;99.90;;;;;;5031100;28;20096;-63
2022/11/14 12:17:53;;;;;;;36.53;20.55;;;9.60;99.90;;;;;;5033923;28;20099;-63
2022/11/14 12:20:50;;;;;;;35.90;20.08;;;9.60;99.90;;;;;;5030178;28;20041;-63
2022/11/14 12:23:49;;;;;;;35.83;20.63;;;9.70;99.90;;;;;;5039913;28;20515;-63
2022/11/14 12:26:33;;;;;;;37.38;20.60;;;9.70;99.90;;;;;;5038856;28;20045;-63
2022/11/14 12:29:40;;;;;;;37.20;20.40;;;9.80;99.90;;;;;;5040196;28;20037;-63
2022/11/14 12:32:10;;;;;;;37.65;20.80;;;9.80;99.90;;;;;;4933550;29;20588;-64
2022/11/14 12:34:42;;;;;;;34.67;20.05;;;9.80;99.90;;;;;;5021041;28;20045;-63
2022/11/14 12:37:20;;;;;;;35.95;20.60;;;9.90;99.90;;;;;;5046157;28;20120;-63
2022/11/14 12:39:58;;;;;;;36.67;20.33;;;9.90;99.90;;;;;;5020895;28;20538;-63
2022/11/14 12:42:24;;;;;;;34.58;19.40;;;10.00;99.90;;;;;;5023126;28;20470;-63
2022/11/14 12:44:51;;;;;;;36.28;19.65;;;10.00;99.90;;;;;;5031128;28;20038;-63
2022/11/14 12:47:18;;;;;;;32.47;18.45;;;10.10;99.90;;;;;;5012156;28;20659;-63
2022/11/14 12:49:46;;;;;;;32.75;19.60;;;10.10;99.90;;;;;;5008254;28;20033;-63
2022/11/14 12:52:41;;;;;;;33.47;19.17;;;10.20;99.90;;;;;;5012606;28;20048;-63